Página principal
METAR-TAF:

METAR-TAF

Aeroportos :

Aeroporto Internacional de Luxemburgo-Findel

Luxemburgo, Luxemburgo

latitude: 49-37N, longitude: 006-13E, altura: 376 m

Observação actual do tempo

O boletim foi feito há 32 minutos, às 11:20 UTC
Vento 9 kt de nordeste
Temperatura 8°C
Humidade 61%
Pressão 1036 hPa
Visibilidade 10 km ou mais
sem nuvens abaixo de 1500 metros e sem cumulonimbus

METAR: ELLX 231120Z 05009KT CAVOK 08/01 Q1036 NOSIG

Hora: 12:52 (11:52 UTC)

Previsão

O boletim foi feito há 52 minutos, às 11:00 UTC
Previsão válida de 23 às 12 UTC a 24 às 18 UTC
Vento 10 kt de es-nordeste
Visibilidade 10 km ou mais
sem nuvens abaixo de 1500 metros e sem cumulonimbus

TAF: ELLX 231100Z 2312/2418 06010KT CAVOK

Observações e previsões do tempo de mais de 4000 aeroportos (mensagens METAR e TAF).

As estações disponíveis são os pontos amarelos e vermelhos sobre o mapa.

Mova o rato sobre o mapa para ver o nome da estação.

Depois clique no ponto para visualizar as observações e previsões meteorológicas.

Para alterar o mapa : clique nos botões verdes com uma cruz preta para aumentar o zoom; no botão verde com uma pitada de zoom; ou nas setas verdes para mapas adjacentes.


METAR-TAF: